CheckWX is a tool to help pilots better visualize weather data.  It is not intended as a substitute for an official pre-flight weather briefing.

05:00:09 UTC

KSFY METAR
Tri-Township Airport
Savanna, Illinois, USA
Current

45 mins ago

KSFY 160415Z AUTO 08009KT 10SM VCTSRA SCT024 BKN032 OVC047 19/18 A2971 RMK AO2 LTG DSNT N THRU SE P0001
Observed
Jun-16 @ 04:15 UTC
Wind
  • 080° at 9 KTS
Visibility
10 SM
Flight Rules
VFR
Conditions
Area Thunderstorm, Area Rain
Cloud Levels
  • Scattered at 2,400' AGL
  • Broken at 3,200' AGL
  • Overcast at 4,700' AGL
Temperature
19°C / 66°F
Dewpoint
18°C / 64°F
Humidity
94%
Altimeter
29.71" Hg
Pressure
1006.12 hPa
Current Rain
0.01"
Previous

1 hour ago

KSFY 160355Z AUTO 09009KT 10SM -RA BKN048 BKN060 OVC075 19/18 A2970 RMK AO2 LTG DSNT SE P0014
Observed
Jun-16 @ 03:55 UTC
Wind
  • 090° at 9 KTS
Visibility
10 SM
Flight Rules
VFR
Conditions
Light Rain
Cloud Levels
  • Broken at 4,800' AGL
  • Broken at 6,000' AGL
  • Overcast at 7,500' AGL
Temperature
19°C / 66°F
Dewpoint
18°C / 64°F
Humidity
94%
Altimeter
29.7" Hg
Pressure
1005.72 hPa
Current Rain
0.14"
Previous

1 hour ago

KSFY 160335Z AUTO 11007KT 7SM VCTSRA SCT010 SCT020 OVC080 19/18 A2971 RMK AO2 LTG DSNT N AND NE P0013
Observed
Jun-16 @ 03:35 UTC
Wind
  • 110° at 7 KTS
Visibility
7 SM
Flight Rules
VFR
Conditions
Area Thunderstorm, Area Rain
Cloud Levels
  • Scattered at 1,000' AGL
  • Scattered at 2,000' AGL
  • Overcast at 8,000' AGL
Temperature
19°C / 66°F
Dewpoint
18°C / 64°F
Humidity
94%
Altimeter
29.71" Hg
Pressure
1006.12 hPa
Current Rain
0.13"